Time;durP1;ratioP1;P1;durP2;ratioP2;P2;SDS_P1;SDS_P2;PMS_P1;PMS_P2;Temp;Humidity;BMP_temperature;BMP_pressure;BME280_temperature;BME280_humidity;BME280_pressure;Samples;Min_cycle;Max_cycle;Signal;HPM_P1;HPM_P2
2023/10/12 00:02:21;;;;;;;9.52;3.17;;;;;;;15.47;49.19;100679.44;5052695;28;20423;-38
2023/10/12 00:04:53;;;;;;;6.75;3.10;;;;;;;15.41;49.70;100691.84;5053108;28;20029;-39
2023/10/12 00:07:42;;;;;;;7.95;3.47;;;;;;;15.48;49.71;100689.16;5052915;28;20021;-39
2023/10/12 00:12:44;;;;;;;6.28;3.30;;;;;;;15.43;49.57;100679.03;5052978;28;20108;-38
2023/10/12 00:17:45;;;;;;;6.25;3.20;;;;;;;15.47;49.67;100671.38;5052898;28;20439;-39
2023/10/12 00:20:21;;;;;;;6.95;3.30;;;;;;;15.51;49.69;100683.34;5052654;28;20029;-39
2023/10/12 00:22:46;;;;;;;5.93;3.45;;;;;;;15.25;51.01;100668.19;5052630;28;20496;-39
2023/10/12 00:25:16;;;;;;;7.35;3.30;;;;;;;15.45;51.08;100660.06;5052704;28;20112;-39
2023/10/12 00:27:42;;;;;;;7.38;3.53;;;;;;;15.30;50.58;100638.88;5052900;28;20046;-40
2023/10/12 00:30:08;;;;;;;5.45;3.45;;;;;;;15.43;51.01;100659.44;5052493;28;20032;-40
2023/10/12 00:32:34;;;;;;;6.72;3.65;;;;;;;15.42;50.83;100650.59;5051612;28;20502;-38
2023/10/12 00:34:59;;;;;;;9.18;3.70;;;;;;;15.33;50.41;100653.72;5052535;28;20080;-39
2023/10/12 00:37:25;;;;;;;6.65;3.28;;;;;;;15.29;50.20;100650.63;5052233;28;20084;-39
2023/10/12 00:42:17;;;;;;;8.63;3.50;;;;;;;15.50;50.43;100646.00;5052184;28;20111;-39
2023/10/12 00:44:43;;;;;;;8.43;3.53;;;;;;;15.32;50.32;100647.53;5052511;28;20172;-38
2023/10/12 00:47:13;;;;;;;11.27;4.00;;;;;;;15.38;49.81;100638.66;5051376;28;20051;-39
2023/10/12 00:49:48;;;;;;;7.60;3.60;;;;;;;15.25;50.34;100639.50;5052307;28;20040;-41
2023/10/12 00:52:22;;;;;;;7.30;3.70;;;;;;;15.36;50.50;100640.69;5052246;28;20040;-39
2023/10/12 00:54:56;;;;;;;5.65;3.40;;;;;;;15.28;50.39;100624.03;5051930;28;20025;-40
2023/10/12 00:57:22;;;;;;;5.45;3.17;;;;;;;15.40;51.11;100641.09;5051955;28;20021;-39
2023/10/12 00:59:51;;;;;;;5.97;3.88;;;;;;;15.49;50.87;100636.31;5051846;28;20032;-40
2023/10/12 01:02:20;;;;;;;7.65;3.83;;;;;;;15.46;50.83;100637.56;5052043;28;20040;-39
2023/10/12 01:04:48;;;;;;;7.90;3.85;;;;;;;15.38;51.16;100640.47;5051638;28;20036;-39
2023/10/12 01:07:20;;;;;;;6.38;3.88;;;;;;;15.37;50.89;100636.16;5050567;28;20104;-39
2023/10/12 01:09:49;;;;;;;5.97;3.47;;;;;;;15.32;51.75;100635.97;5046235;28;20102;-39
2023/10/12 01:12:15;;;;;;;6.60;3.78;;;;;;;15.31;51.36;100637.03;5051220;28;20086;-41
2023/10/12 01:14:47;;;;;;;7.78;4.10;;;;;;;15.27;51.63;100633.94;5051030;28;20036;-40
2023/10/12 01:17:28;;;;;;;7.38;4.03;;;;;;;15.24;51.39;100626.31;5050625;28;20074;-40
2023/10/12 01:19:54;;;;;;;9.77;3.70;;;;;;;15.18;51.05;100633.34;5051356;28;20057;-40
2023/10/12 01:22:26;;;;;;;8.30;3.90;;;;;;;15.22;51.49;100625.72;5051349;28;20497;-39
2023/10/12 01:27:21;;;;;;;6.30;3.78;;;;;;;14.97;51.69;100621.06;5051392;28;20028;-40
2023/10/12 01:29:48;;;;;;;6.82;3.95;;;;;;;15.05;52.03;100630.72;5051361;28;20039;-40
2023/10/12 01:35:02;;;;;;;7.30;4.10;;;;;;;14.92;52.32;100634.25;5051081;28;20127;-39
2023/10/12 01:37:28;;;;;;;5.70;3.58;;;;;;;14.96;51.51;100629.28;5051264;28;20061;-40
2023/10/12 01:39:57;;;;;;;9.30;4.03;;;;;;;14.87;51.77;100628.72;5051035;28;20025;-40
2023/10/12 01:42:34;;;;;;;5.63;3.67;;;;;;;14.82;51.38;100623.97;5051084;28;20036;-40
2023/10/12 01:45:02;;;;;;;7.78;4.10;;;;;;;14.81;51.72;100621.50;5049884;28;20044;-41
2023/10/12 01:47:27;;;;;;;12.73;4.10;;;;;;;14.83;51.56;100628.31;5050892;28;20029;-40
2023/10/12 01:49:53;;;;;;;8.68;4.00;;;;;;;14.90;51.67;100622.09;5050850;28;20564;-39
2023/10/12 01:52:19;;;;;;;9.65;4.68;;;;;;;14.82;51.68;100625.84;5050790;28;20063;-39
2023/10/12 01:54:49;;;;;;;5.45;3.85;;;;;;;14.69;52.05;100605.25;5051031;28;20032;-42
2023/10/12 01:57:26;;;;;;;8.90;4.05;;;;;;;14.66;51.90;100622.56;5050661;28;20455;-39
2023/10/12 01:59:54;;;;;;;10.18;4.18;;;;;;;14.68;52.22;100622.38;5050900;28;20025;-40
2023/10/12 02:02:21;;;;;;;7.32;4.15;;;;;;;14.71;52.22;100616.56;5051346;28;20028;-40
2023/10/12 02:04:47;;;;;;;7.70;4.20;;;;;;;14.78;52.21;100625.44;5051470;28;20059;-40
2023/10/12 02:07:13;;;;;;;9.43;4.55;;;;;;;14.70;52.11;100622.13;5051118;28;20029;-39
2023/10/12 02:09:39;;;;;;;9.15;3.88;;;;;;;14.74;52.26;100624.22;5051162;28;20483;-39
2023/10/12 02:12:16;;;;;;;10.48;4.00;;;;;;;14.77;52.12;100622.94;5051152;28;20036;-39
2023/10/12 02:14:41;;;;;;;11.18;4.28;;;;;;;14.88;52.43;100627.66;5051056;28;20104;-39
2023/10/12 02:17:08;;;;;;;7.07;3.90;;;;;;;14.74;52.16;100624.22;5051451;28;20108;-39
2023/10/12 02:19:43;;;;;;;11.70;3.85;;;;;;;14.66;52.21;100600.31;5051184;28;20027;-40
2023/10/12 02:22:20;;;;;;;10.07;3.30;;;;;;;14.79;51.91;100616.38;5050790;28;20029;-40
2023/10/12 02:25:03;;;;;;;6.20;3.65;;;;;;;14.68;53.27;100630.41;5050873;28;20462;-40
2023/10/12 02:27:29;;;;;;;6.32;3.47;;;;;;;14.41;52.13;100625.06;5050934;28;20028;-39
2023/10/12 02:29:56;;;;;;;7.18;3.25;;;;;;;14.40;53.04;100622.56;5050953;28;20051;-40
2023/10/12 02:32:24;;;;;;;6.22;3.47;;;;;;;14.56;52.52;100627.47;5050998;28;20025;-40
2023/10/12 02:34:56;;;;;;;7.90;3.70;;;;;;;14.52;52.70;100626.25;5051196;28;20232;-39
2023/10/12 02:37:24;;;;;;;7.15;3.92;;;;;;;14.24;53.10;100627.31;5049178;28;20098;-39
2023/10/12 02:39:53;;;;;;;8.40;4.32;;;;;;;14.28;54.25;100625.06;5051023;28;20024;-39
2023/10/12 02:42:21;;;;;;;7.72;4.20;;;;;;;14.00;54.58;100617.22;5050863;28;20039;-39
2023/10/12 02:47:33;;;;;;;8.60;4.60;;;;;;;13.91;54.86;100605.06;5050932;28;20078;-39
2023/10/12 02:52:35;;;;;;;8.60;4.43;;;;;;;13.46;56.78;100621.63;5051139;28;20090;-39
2023/10/12 02:57:53;;;;;;;9.70;4.22;;;;;;;13.62;56.00;100593.69;5054503;28;20029;-38
2023/10/12 03:00:22;;;;;;;9.45;4.10;;;;;;;13.96;55.16;100605.28;5054765;28;20040;-39
2023/10/12 03:02:51;;;;;;;6.78;4.10;;;;;;;13.81;56.01;100616.16;5054858;28;20029;-39
2023/10/12 03:05:32;;;;;;;7.60;4.45;;;;;;;13.61;56.00;100608.94;5054666;28;20036;-39
2023/10/12 03:08:05;;;;;;;6.18;4.35;;;;;;;13.71;55.28;100602.34;5054748;28;20033;-40
2023/10/12 03:10:30;;;;;;;10.45;4.60;;;;;;;13.71;55.93;100613.03;5054510;28;20052;-39
2023/10/12 03:13:04;;;;;;;10.63;4.55;;;;;;;13.85;55.33;100612.06;5054641;28;20404;-39
2023/10/12 03:15:42;;;;;;;10.43;4.32;;;;;;;13.81;55.24;100613.50;5054512;28;20017;-39
2023/10/12 03:18:11;;;;;;;7.10;4.20;;;;;;;13.63;55.83;100611.38;5054794;28;20017;-39
2023/10/12 03:20:52;;;;;;;9.15;4.47;;;;;;;13.63;55.84;100611.38;5054895;28;20102;-41
2023/10/12 03:23:19;;;;;;;7.25;4.38;;;;;;;13.79;55.88;100612.88;5054318;28;20466;-38
2023/10/12 03:25:46;;;;;;;10.27;4.40;;;;;;;13.80;56.33;100610.00;5054236;28;20061;-40
2023/10/12 03:28:30;;;;;;;7.30;4.78;;;;;;;13.43;57.02;100606.00;5054516;28;20083;-39
2023/10/12 03:33:52;;;;;;;6.38;4.10;;;;;;;13.77;55.56;100612.25;5054208;28;20036;-39
2023/10/12 03:36:22;;;;;;;8.30;4.78;;;;;;;13.73;56.08;100611.00;5053487;28;20484;-39
2023/10/12 03:47:04;;;;;;;8.50;4.78;;;;;;;13.96;55.10;100610.63;5054325;28;20098;-38
2023/10/12 03:49:43;;;;;;;10.95;5.07;;;;;;;13.60;55.83;100615.28;5053836;28;20036;-39
2023/10/12 03:52:15;;;;;;;7.38;4.95;;;;;;;13.48;56.77;100612.38;5053809;28;20029;-39
2023/10/12 04:02:42;;;;;;;10.02;4.60;;;;;;;13.75;55.84;100606.28;5054703;28;20492;-38
2023/10/12 04:05:20;;;;;;;8.48;4.80;;;;;;;13.58;55.83;100608.50;5054440;28;20127;-40
2023/10/12 04:18:33;;;;;;;8.57;4.68;;;;;;;12.60;59.00;100613.97;5053500;28;20017;-39
2023/10/12 04:20:59;;;;;;;16.25;8.45;;;;;;;12.21;59.86;100610.03;5053320;28;20189;-40
2023/10/12 04:23:43;;;;;;;8.35;4.72;;;;;;;12.08;63.66;100610.72;5052943;28;20544;-39
2023/10/12 04:27:06;;;;;;;8.32;4.50;;;;;;;12.62;59.59;100607.44;5052912;28;20473;-40
2023/10/12 04:28:57;;;;;;;9.43;4.60;;;;;;;12.71;58.63;100611.59;5045335;28;20044;-39
2023/10/12 04:34:06;;;;;;;11.00;5.55;;;;;;;13.08;57.38;100614.88;5052606;28;20017;-40
2023/10/12 04:36:44;;;;;;;12.07;5.53;;;;;;;13.06;57.60;100605.41;5041133;28;20053;-40
2023/10/12 04:39:25;;;;;;;12.15;5.10;;;;;;;13.27;56.65;100612.50;5045130;28;20091;-39
2023/10/12 04:47:30;;;;;;;7.78;4.50;;;;;;;13.08;60.67;100616.75;5033337;28;20026;-39
2023/10/12 04:57:30;;;;;;;12.55;4.95;;;;;;;15.71;53.75;100604.63;5051721;28;20025;-43
2023/10/12 05:02:41;;;;;;;15.13;5.57;;;;;;;15.80;54.09;100612.22;5049254;28;20036;-45
2023/10/12 05:07:54;;;;;;;15.88;4.80;;;;;;;15.79;50.46;100617.81;5030666;28;20021;-39
2023/10/12 05:13:05;;;;;;;7.55;4.60;;;;;;;16.40;48.61;100614.44;5035431;28;20040;-40
2023/10/12 05:15:39;;;;;;;10.45;5.22;;;;;;;16.60;48.61;100618.78;5042105;28;20165;-39
2023/10/12 05:18:12;;;;;;;8.80;4.50;;;;;;;16.61;47.90;100615.88;5051555;28;20028;-41
2023/10/12 05:20:42;;;;;;;7.47;4.07;;;;;;;16.87;47.13;100622.06;5051598;28;20475;-41
2023/10/12 05:23:08;;;;;;;10.27;4.28;;;;;;;17.05;46.02;100623.09;5051992;28;20040;-39
2023/10/12 05:25:48;;;;;;;6.95;4.50;;;;;;;17.30;46.22;100623.00;5051748;28;20029;-39
2023/10/12 05:28:55;;;;;;;9.18;4.10;;;;;;;17.54;45.90;100619.38;5050925;28;20025;-40
2023/10/12 05:31:13;;;;;;;12.25;4.72;;;;;;;17.77;44.68;100623.19;5051213;28;20500;-39
2023/10/12 05:33:43;;;;;;;10.20;4.88;;;;;;;18.08;44.94;100624.81;5051339;28;20021;-39
2023/10/12 05:36:15;;;;;;;9.80;4.30;;;;;;;18.49;43.48;100616.91;5051446;28;20025;-40
2023/10/12 05:38:51;;;;;;;6.70;4.10;;;;;;;18.63;42.64;100602.09;5051233;28;20045;-42
2023/10/12 05:44:15;;;;;;;13.52;4.07;;;;;;;19.33;41.64;100622.75;5042594;28;20090;-41
2023/10/12 05:46:44;;;;;;;8.02;4.13;;;;;;;19.57;40.64;100621.81;5051819;28;20105;-45
2023/10/12 05:49:12;;;;;;;6.45;3.65;;;;;;;19.84;40.25;100619.41;5051376;28;20017;-45
2023/10/12 05:51:39;;;;;;;7.97;3.92;;;;;;;20.17;39.64;100613.19;5051705;28;20025;-44
2023/10/12 05:54:07;;;;;;;12.85;3.83;;;;;;;20.48;38.74;100621.75;5051683;28;20036;-42
2023/10/12 05:56:34;;;;;;;10.90;4.40;;;;;;;20.86;38.38;100625.56;5051330;28;20052;-43
2023/10/12 05:59:12;;;;;;;13.35;4.28;;;;;;;20.88;37.55;100626.94;5051075;28;20098;-44
2023/10/12 06:01:39;;;;;;;11.38;4.82;;;;;;;20.97;37.20;100618.41;5047746;28;20032;-43
2023/10/12 06:04:06;;;;;;;10.68;3.85;;;;;;;21.14;36.73;100627.25;5051185;28;20021;-46
2023/10/12 06:06:41;;;;;;;10.23;3.35;;;;;;;21.54;36.45;100636.94;5050963;28;20063;-45
2023/10/12 06:09:11;;;;;;;11.52;3.90;;;;;;;21.72;36.34;100629.53;5050825;28;20036;-43
2023/10/12 06:11:40;;;;;;;8.18;3.80;;;;;;;22.03;35.90;100649.63;5051023;28;20029;-43
2023/10/12 06:14:06;;;;;;;10.55;3.60;;;;;;;21.93;35.58;100652.22;5050933;28;20083;-43
2023/10/12 06:16:39;;;;;;;7.38;3.20;;;;;;;22.36;34.78;100642.31;5051084;28;20488;-44
2023/10/12 06:19:05;;;;;;;8.43;3.45;;;;;;;22.87;34.21;100639.13;5050756;28;20025;-42
2023/10/12 06:21:32;;;;;;;4.15;3.40;;;;;;;22.99;33.52;100635.09;5050315;28;20067;-43
2023/10/12 06:23:59;;;;;;;6.85;3.40;;;;;;;23.25;33.83;100642.53;5049667;28;20397;-45
2023/10/12 06:26:34;;;;;;;11.25;3.60;;;;;;;23.79;32.62;100634.03;5049382;28;20028;-40
2023/10/12 06:29:00;;;;;;;6.25;3.25;;;;;;;24.00;31.99;100626.69;5049616;28;20033;-49
2023/10/12 06:31:29;;;;;;;5.97;3.20;;;;;;;24.37;31.55;100633.75;5048656;28;20033;-45
2023/10/12 06:33:56;;;;;;;19.85;3.80;;;;;;;24.26;31.43;100629.41;5049673;28;20469;-43
2023/10/12 06:36:36;;;;;;;8.75;3.67;;;;;;;24.48;36.66;100629.09;5048309;28;20091;-42
2023/10/12 06:40:07;;;;;;;12.60;4.60;;;;;;;24.90;31.77;100638.81;5047505;28;20040;-43
2023/10/12 06:44:25;;;;;;;7.18;3.92;;;;;;;25.08;30.15;100631.97;5050788;28;20399;-43
2023/10/12 06:46:53;;;;;;;7.00;3.83;;;;;;;25.23;31.11;100631.13;5050746;28;20036;-42
2023/10/12 06:49:23;;;;;;;11.55;4.10;;;;;;;25.59;30.08;100626.28;5049068;28;20115;-43
2023/10/12 06:52:13;;;;;;;11.18;3.85;;;;;;;25.89;29.44;100635.31;5050246;28;20067;-42
2023/10/12 06:54:39;;;;;;;9.73;3.95;;;;;;;26.42;28.85;100637.34;5050438;28;20544;-42
2023/10/12 07:02:29;;;;;;;5.93;3.40;;;;;;;26.94;28.20;100622.06;5050539;28;20072;-41
2023/10/12 07:04:57;;;;;;;7.60;3.70;;;;;;;27.22;27.66;100619.53;5050534;28;20323;-44
2023/10/12 07:07:36;;;;;;;6.30;3.63;;;;;;;27.23;27.41;100611.03;5050730;28;20029;-41
2023/10/12 07:12:44;;;;;;;8.23;3.72;;;;;;;27.38;28.02;100620.97;5050556;28;19916;-44
2023/10/12 07:15:19;;;;;;;12.20;3.88;;;;;;;27.40;27.33;100626.16;5050656;28;20086;-43
2023/10/12 07:17:49;;;;;;;7.25;4.30;;;;;;;27.67;27.72;100628.22;5050601;28;20723;-44
2023/10/12 07:22:57;;;;;;;6.18;3.25;;;;;;;27.86;26.86;100625.44;5050292;28;20037;-42
2023/10/12 07:25:27;;;;;;;10.25;3.88;;;;;;;27.90;26.99;100625.69;5050372;28;20082;-46
2023/10/12 07:28:01;;;;;;;7.10;3.83;;;;;;;27.47;27.96;100624.69;5050128;28;20020;-45
2023/10/12 07:30:33;;;;;;;5.75;3.40;;;;;;;27.55;27.49;100633.28;5049717;28;20036;-44
2023/10/12 07:33:05;;;;;;;6.97;3.42;;;;;;;27.69;27.00;100617.78;5050333;28;20127;-42
2023/10/12 07:35:34;;;;;;;8.65;4.32;;;;;;;27.45;27.44;100620.59;5050052;28;20025;-44
2023/10/12 07:38:14;;;;;;;6.78;3.28;;;;;;;26.61;28.30;100627.34;5050132;28;20049;-44
2023/10/12 07:40:51;;;;;;;8.25;3.50;;;;;;;27.06;27.63;100619.72;5050329;28;20031;-45
2023/10/12 07:43:18;;;;;;;9.35;3.20;;;;;;;27.10;27.62;100618.03;5052779;28;20476;-45
2023/10/12 07:45:51;;;;;;;5.03;3.17;;;;;;;27.05;27.70;100611.81;5053385;28;20055;-48
2023/10/12 07:48:31;;;;;;;7.35;3.10;;;;;;;27.75;26.73;100611.13;5054287;28;20185;-47
2023/10/12 07:51:14;;;;;;;9.57;2.97;;;;;;;27.58;27.00;100614.38;5054312;28;20377;-42
2023/10/12 07:53:39;;;;;;;4.40;2.80;;;;;;;27.88;26.69;100612.28;5054502;28;20029;-45
2023/10/12 07:56:06;;;;;;;7.25;2.75;;;;;;;27.82;26.82;100608.81;5053903;28;20025;-45
2023/10/12 07:58:31;;;;;;;5.38;2.90;;;;;;;27.09;27.41;100597.31;5053922;28;20013;-42
2023/10/12 08:03:50;;;;;;;5.25;2.60;;;;;;;27.70;27.02;100603.00;5033704;28;20032;-46
2023/10/12 08:06:28;;;;;;;9.20;2.80;;;;;;;28.20;25.88;100607.97;5033131;28;20080;-45
2023/10/12 08:09:02;;;;;;;4.90;2.53;;;;;;;28.20;26.23;100597.00;5042654;28;20090;-45
2023/10/12 08:11:28;;;;;;;5.13;2.50;;;;;;;28.19;26.27;100596.19;5053055;28;20485;-41
2023/10/12 08:13:55;;;;;;;7.32;2.90;;;;;;;27.90;26.53;100595.63;5048162;28;20031;-42
2023/10/12 08:16:40;;;;;;;5.15;3.20;;;;;;;27.71;26.82;100590.16;5041134;28;20029;-44
2023/10/12 08:21:32;;;;;;;5.60;3.20;;;;;;;27.03;27.58;100581.25;5051742;28;20435;-44
2023/10/12 08:26:35;;;;;;;4.50;2.65;;;;;;;27.17;27.73;100571.25;5053427;28;20055;-50
2023/10/12 08:31:45;;;;;;;9.07;2.80;;;;;;;27.89;26.74;100575.66;5053391;28;20040;-42
2023/10/12 08:34:41;;;;;;;5.40;2.67;;;;;;;27.62;27.08;100560.75;5053076;28;20021;-41
2023/10/12 08:39:39;;;;;;;7.97;3.15;;;;;;;27.03;27.40;100557.47;5049788;28;20412;-45
2023/10/12 08:44:58;;;;;;;5.75;2.65;;;;;;;26.79;27.70;100549.34;5051504;28;20032;-46
2023/10/12 08:49:53;;;;;;;8.60;2.83;;;;;;;27.64;27.09;100536.66;5053131;28;20037;-44
2023/10/12 08:52:27;;;;;;;3.95;2.47;;;;;;;27.69;27.27;100538.50;5052590;28;20133;-43
2023/10/12 08:54:57;;;;;;;3.28;2.50;;;;;;;28.05;26.27;100533.25;5052145;28;20027;-43
2023/10/12 08:57:39;;;;;;;6.38;2.67;;;;;;;27.74;27.01;100529.38;5050563;28;20024;-42
2023/10/12 09:02:58;;;;;;;8.75;3.42;;;;;;;27.90;26.92;100521.78;5050209;28;20067;-44
2023/10/12 09:05:25;;;;;;;5.40;2.80;;;;;;;27.36;27.12;100522.09;5051781;28;20139;-47
2023/10/12 09:13:35;;;;;;;5.20;2.55;;;;;;;26.62;27.78;100516.28;5060689;28;20043;-44
2023/10/12 09:16:11;;;;;;;4.38;2.50;;;;;;;26.42;28.09;100504.44;5072974;28;20107;-42
2023/10/12 09:18:47;;;;;;;6.32;2.72;;;;;;;26.01;28.50;100504.09;5050712;28;20032;-45
2023/10/12 09:26:37;;;;;;;5.05;2.53;;;;;;;26.39;28.21;100490.56;5052386;28;20028;-46
2023/10/12 09:36:29;;;;;;;7.05;2.60;;;;;;;26.45;28.28;100479.31;5051631;28;20029;-42
2023/10/12 09:38:56;;;;;;;6.47;2.70;;;;;;;26.44;28.70;100471.44;5051979;28;20021;-44
2023/10/12 09:41:29;;;;;;;7.68;2.80;;;;;;;26.95;28.17;100464.50;5051404;28;20025;-45
2023/10/12 09:44:00;;;;;;;4.18;2.42;;;;;;;27.40;27.70;100467.66;5051546;28;20513;-45
2023/10/12 09:46:27;;;;;;;7.65;3.10;;;;;;;27.32;28.37;100462.84;5051958;28;20086;-45
2023/10/12 09:49:14;;;;;;;4.43;2.55;;;;;;;27.37;27.49;100460.06;5049441;28;20540;-43
2023/10/12 09:51:46;;;;;;;4.82;2.58;;;;;;;27.08;27.64;100450.09;5049170;28;20055;-42
2023/10/12 09:54:27;;;;;;;10.30;2.92;;;;;;;26.77;28.42;100439.63;5050561;28;20025;-45
2023/10/12 09:56:58;;;;;;;6.30;2.75;;;;;;;27.10;27.32;100447.88;5046485;28;20103;-43
2023/10/12 09:59:29;;;;;;;10.80;2.97;;;;;;;26.70;28.40;100433.72;5050750;28;20021;-43
2023/10/12 10:02:27;;;;;;;9.85;3.00;;;;;;;26.48;28.56;100432.38;5051951;28;20477;-44
2023/10/12 10:04:45;;;;;;;6.72;2.80;;;;;;;26.68;28.02;100422.31;5053532;28;20120;-45
2023/10/12 10:07:26;;;;;;;10.43;2.70;;;;;;;26.85;27.99;100417.13;5055389;28;20119;-43
2023/10/12 10:10:00;;;;;;;6.90;2.90;;;;;;;26.32;29.08;100411.84;5055495;28;20033;-45
2023/10/12 10:12:35;;;;;;;6.43;2.42;;;;;;;26.84;28.60;100407.28;5057423;28;20028;-47
2023/10/12 10:15:26;;;;;;;7.03;2.78;;;;;;;26.80;28.66;100406.28;5049795;28;20068;-42
2023/10/12 10:17:55;;;;;;;6.10;2.30;;;;;;;27.45;28.05;100402.78;5047437;28;20049;-43
2023/10/12 10:22:59;;;;;;;7.22;2.40;;;;;;;26.60;28.67;100392.91;5049912;28;20025;-41
2023/10/12 10:25:35;;;;;;;6.88;2.88;;;;;;;27.00;28.53;100390.69;5050155;28;20108;-43
2023/10/12 10:28:10;;;;;;;6.53;2.40;;;;;;;27.27;28.24;100379.06;5049839;28;20029;-42
2023/10/12 10:30:43;;;;;;;5.47;2.72;;;;;;;27.88;27.63;100377.94;5049641;28;20033;-42
2023/10/12 10:33:13;;;;;;;7.80;2.90;;;;;;;28.13;27.25;100375.00;5048340;28;20029;-42
2023/10/12 10:36:10;;;;;;;6.65;2.83;;;;;;;28.72;26.41;100372.34;5047726;28;20552;-42
2023/10/12 10:38:46;;;;;;;5.68;2.85;;;;;;;27.59;26.90;100359.09;5048100;28;20075;-43
2023/10/12 10:41:18;;;;;;;6.47;2.83;;;;;;;26.33;28.65;100367.06;5048290;28;20036;-45
2023/10/12 10:43:45;;;;;;;8.27;2.90;;;;;;;26.09;28.81;100359.75;5048229;28;20037;-42
2023/10/12 10:46:11;;;;;;;4.82;2.60;;;;;;;26.37;29.14;100357.22;5047667;28;20025;-43
2023/10/12 10:48:38;;;;;;;3.88;2.80;;;;;;;26.73;28.19;100345.78;5049460;28;20409;-43
2023/10/12 10:51:11;;;;;;;5.65;2.80;;;;;;;26.83;28.34;100347.56;5049937;28;20028;-44
2023/10/12 10:53:37;;;;;;;5.55;2.67;;;;;;;26.44;28.63;100341.25;5049772;28;20469;-42
2023/10/12 10:56:14;;;;;;;4.47;2.50;;;;;;;26.53;28.96;100336.75;5049733;28;20567;-44
2023/10/12 10:58:41;;;;;;;7.97;3.38;;;;;;;26.74;28.60;100331.03;5049838;28;20052;-43
2023/10/12 11:01:12;;;;;;;4.93;2.97;;;;;;;26.79;28.49;100325.50;5049472;28;20510;-43
2023/10/12 11:03:43;;;;;;;10.50;3.35;;;;;;;27.19;28.42;100325.06;5049489;28;20059;-43
2023/10/12 11:06:14;;;;;;;6.05;2.67;;;;;;;26.96;28.00;100318.66;5049845;28;20033;-41
2023/10/12 11:08:53;;;;;;;3.65;2.33;;;;;;;26.81;27.99;100314.28;5049314;28;20033;-47
2023/10/12 11:11:25;;;;;;;5.35;2.60;;;;;;;26.55;28.43;100311.13;5049601;28;20033;-42
2023/10/12 11:13:52;;;;;;;8.70;2.63;;;;;;;26.83;28.29;100296.50;5047112;28;20029;-43
2023/10/12 11:16:22;;;;;;;3.92;2.42;;;;;;;27.54;27.77;100290.84;5046605;28;20131;-44
2023/10/12 11:18:48;;;;;;;4.85;2.70;;;;;;;27.24;28.52;100287.56;5050799;28;20024;-43
2023/10/12 11:21:17;;;;;;;6.05;2.50;;;;;;;27.18;28.22;100286.03;5052925;28;20035;-43
2023/10/12 11:23:45;;;;;;;4.93;2.58;;;;;;;26.72;28.38;100281.38;5050459;28;20427;-41
2023/10/12 11:26:17;;;;;;;4.60;2.50;;;;;;;26.86;27.85;100275.97;5053046;28;20110;-42
2023/10/12 11:28:48;;;;;;;5.05;2.60;;;;;;;26.38;29.22;100263.34;5049977;28;20116;-42
2023/10/12 11:31:20;;;;;;;6.20;3.10;;;;;;;27.06;28.38;100266.59;5052565;28;20467;-43
2023/10/12 11:33:49;;;;;;;6.45;3.47;;;;;;;27.61;27.75;100263.13;5051742;28;20028;-42
2023/10/12 11:36:23;;;;;;;5.25;2.42;;;;;;;27.51;27.53;100258.66;5050395;28;20068;-43
2023/10/12 11:39:18;;;;;;;4.57;2.50;;;;;;;27.87;27.16;100261.47;5053141;28;20029;-43
2023/10/12 11:42:12;;;;;;;4.38;2.55;;;;;;;27.24;27.54;100262.16;5050812;28;20029;-45
2023/10/12 11:44:42;;;;;;;6.57;2.40;;;;;;;27.21;27.99;100255.41;5045926;28;20033;-44
2023/10/12 11:47:08;;;;;;;5.80;2.47;;;;;;;27.08;27.77;100251.53;5053195;28;20107;-45
2023/10/12 11:49:55;;;;;;;10.65;5.75;;;;;;;27.27;28.03;100254.22;5032658;28;20056;-43
2023/10/12 11:52:33;;;;;;;5.63;2.30;;;;;;;26.18;29.29;100247.28;5033252;28;20025;-42
2023/10/12 11:55:18;;;;;;;5.93;2.58;;;;;;;26.85;28.31;100241.59;5032806;28;20029;-43
2023/10/12 11:57:48;;;;;;;6.68;2.25;;;;;;;27.22;28.06;100246.06;5032841;28;20505;-43
2023/10/12 12:00:21;;;;;;;4.55;2.40;;;;;;;27.26;27.79;100241.69;5038458;28;20025;-42
2023/10/12 12:02:57;;;;;;;3.47;2.17;;;;;;;26.63;28.83;100240.31;5052765;28;20040;-43
2023/10/12 12:05:29;;;;;;;6.60;2.25;;;;;;;26.24;29.12;100235.19;5053177;28;20412;-43
2023/10/12 12:08:18;;;;;;;10.02;2.60;;;;;;;26.38;29.76;100237.97;5052576;28;20085;-45
2023/10/12 12:10:45;;;;;;;7.28;2.25;;;;;;;27.20;28.48;100223.72;5052485;28;20025;-44
2023/10/12 12:13:12;;;;;;;4.22;3.30;;;;;;;27.48;28.91;100221.00;5059893;28;20024;-43
2023/10/12 12:15:46;;;;;;;6.70;2.60;;;;;;;27.87;27.75;100211.41;5072729;28;20406;-43
2023/10/12 12:18:17;;;;;;;4.05;2.25;;;;;;;27.42;27.59;100214.84;5068623;28;20091;-44
2023/10/12 12:20:44;;;;;;;6.20;2.40;;;;;;;26.97;28.09;100200.16;5052885;28;20128;-41
2023/10/12 12:23:10;;;;;;;3.58;2.33;;;;;;;26.97;28.29;100197.41;5052148;28;20357;-43
2023/10/12 12:25:39;;;;;;;9.25;2.70;;;;;;;26.94;28.59;100201.56;5054906;28;20052;-42
2023/10/12 12:28:07;;;;;;;3.80;2.30;;;;;;;27.16;28.08;100181.75;5057800;28;20106;-42
2023/10/12 12:30:45;;;;;;;6.00;3.13;;;;;;;27.63;27.93;100195.28;5048509;28;20033;-44
2023/10/12 12:33:15;;;;;;;4.72;2.90;;;;;;;28.00;27.43;100187.91;5051150;28;20032;-42
2023/10/12 12:35:41;;;;;;;7.88;2.88;;;;;;;27.72;27.18;100184.41;5049167;28;20107;-44
2023/10/12 12:38:21;;;;;;;7.00;3.10;;;;;;;27.34;27.82;100174.59;5051153;28;20179;-45
2023/10/12 12:40:47;;;;;;;5.93;2.58;;;;;;;26.95;28.34;100180.53;5049969;28;20025;-44
2023/10/12 12:43:12;;;;;;;7.00;2.67;;;;;;;26.66;28.78;100174.22;5051658;28;20020;-47
2023/10/12 12:45:37;;;;;;;8.23;2.80;;;;;;;27.25;27.92;100169.03;5051272;28;20563;-42
2023/10/12 12:48:04;;;;;;;5.70;2.67;;;;;;;27.20;28.46;100162.81;5051278;28;20025;-43
2023/10/12 12:50:30;;;;;;;4.95;2.65;;;;;;;26.80;28.45;100152.38;5051838;28;20414;-42
2023/10/12 12:52:57;;;;;;;6.03;2.75;;;;;;;26.50;28.92;100146.38;5052005;28;20024;-42
2023/10/12 12:55:25;;;;;;;5.30;2.83;;;;;;;27.44;27.99;100155.22;5051242;28;20027;-43
2023/10/12 12:57:50;;;;;;;8.73;2.90;;;;;;;27.66;27.56;100148.19;5051687;28;20021;-44
2023/10/12 13:00:21;;;;;;;7.82;2.78;;;;;;;27.86;27.22;100149.66;5051465;28;20075;-42
2023/10/12 13:02:47;;;;;;;5.85;2.55;;;;;;;28.01;27.68;100141.13;5050003;28;20025;-42
2023/10/12 13:05:13;;;;;;;7.55;3.13;;;;;;;27.82;27.26;100138.53;5051192;28;20030;-45
2023/10/12 13:07:40;;;;;;;5.88;2.63;;;;;;;27.36;27.94;100138.75;5051753;28;20099;-41
2023/10/12 13:10:11;;;;;;;8.80;2.70;;;;;;;27.40;27.66;100139.78;5051538;28;20051;-44
2023/10/12 13:12:43;;;;;;;6.38;2.70;;;;;;;27.72;27.69;100136.03;5054236;28;20113;-42
2023/10/12 13:15:09;;;;;;;3.55;2.78;;;;;;;27.53;28.07;100129.91;5070828;28;20029;-45
2023/10/12 13:17:38;;;;;;;4.10;2.75;;;;;;;27.97;27.50;100133.81;5071527;28;20031;-43
2023/10/12 13:20:06;;;;;;;5.00;2.65;;;;;;;27.10;28.30;100129.13;5069498;28;20123;-43
2023/10/12 13:22:31;;;;;;;6.82;2.60;;;;;;;26.98;28.35;100134.31;5050885;28;20508;-42
2023/10/12 13:24:57;;;;;;;5.03;2.50;;;;;;;27.13;28.02;100133.19;5050853;28;20037;-43
2023/10/12 13:27:24;;;;;;;3.75;2.42;;;;;;;27.17;28.48;100116.97;5050660;28;20070;-44
2023/10/12 13:29:50;;;;;;;5.82;2.50;;;;;;;27.59;27.80;100121.28;5051177;28;20037;-42
2023/10/12 13:32:18;;;;;;;6.47;3.05;;;;;;;27.81;27.42;100119.69;5050987;28;20032;-44
2023/10/12 13:34:43;;;;;;;6.32;2.63;;;;;;;27.15;28.17;100117.31;5051031;28;20082;-42
2023/10/12 13:37:09;;;;;;;6.55;2.95;;;;;;;27.56;27.64;100112.91;5050624;28;20468;-43
2023/10/12 13:39:34;;;;;;;6.18;2.78;;;;;;;27.83;27.13;100114.72;5051003;28;20099;-42
2023/10/12 13:42:00;;;;;;;5.78;2.70;;;;;;;28.04;27.20;100106.84;5050440;28;20105;-45
2023/10/12 13:44:25;;;;;;;4.75;2.40;;;;;;;27.78;27.15;100112.09;5050482;28;20484;-43
2023/10/12 13:46:54;;;;;;;4.47;2.70;;;;;;;26.65;28.56;100100.81;5050431;28;20025;-43
2023/10/12 13:49:22;;;;;;;4.30;2.38;;;;;;;26.57;28.80;100096.84;5050080;28;20017;-41
2023/10/12 13:51:48;;;;;;;7.97;2.55;;;;;;;27.23;28.08;100100.19;5047286;28;20033;-42
2023/10/12 13:54:14;;;;;;;2.95;2.47;;;;;;;27.57;27.65;100098.94;5050509;28;20035;-42
2023/10/12 13:56:44;;;;;;;6.50;2.90;;;;;;;27.53;28.00;100094.38;5045724;28;20087;-43